Startpagina
METAR-TAF:

METAR-TAF

Vliegvelden :

Ibadan, Nigeria

breedte: 07-26N, lengte: 003-54E, hoogte: 234 m

Actueel weer

Dit bericht is 2 uur en het 40 minuten geleden gemaakt, om 00:00 UTC
Wind 5 kt uit het noordnoordoosten
Temperatuur 25°C
Vochtigheid 57%
Druk 1013 hPa
Zicht: 3000 m
Heiigheid

METAR: DNIB 290000Z 03005KT 3000 HZ NSC 25/16 Q1013

Tijdstip: 03:40 (02:40 UTC)

Verwachting

Dit bericht is 3 uur en het 40 minuten geleden gemaakt, om 23:00 UTC
Verwachting geldig van 29 om 00 UTC tot 30 om 06 UTC
Wind 2 kt uit variabele richting
Zicht: 3000 m
Heiigheid
Tijdelijke
van 29 om 05 UTC tot 29 om 09 UTC
Zicht: 1500 m
Wijzigt naar
van 29 om 09 UTC tot 29 om 11 UTC
Wind 10 kt uit het noordoosten

TAF: DNIB 282300Z 2900/3006 VRB02KT 3000 HZ NSC TEMPO 2905/2909 1500 BECMG 2909/2911 04010KT

Waarnemingen en weersverwachtingen van meer dan 4000 vliegvelden (METAR en TAF).

De beschikbare stations zijn de gele en rode punten op de kaart.

Ga met uw muis naar het station om de naam te zien.

Klik dan om waarnemingen en weersverwachtingen te zien.

kaart wijzigen: klik op de groene knoppen met een zwart kruis om in te zoomen, op de groene knop met een streepje om uit te zoomen of op de groene pijlen voor aangrenzende kaarten.


METAR-TAF: